Time;durP1;ratioP1;P1;durP2;ratioP2;P2;SDS_P1;SDS_P2;PMS_P1;PMS_P2;Temp;Humidity;BMP_temperature;BMP_pressure;BME280_temperature;BME280_humidity;BME280_pressure;Samples;Min_cycle;Max_cycle;Signal;HPM_P1;HPM_P2
2021/12/19 00:01:08;;;;;;;35.83;15.90;;;;;;;;;;6163501;23;20569;-79
2021/12/19 00:09:01;;;;;;;42.35;17.60;;;;;;;;;;6187877;23;20373;-77
2021/12/19 00:11:29;;;;;;;44.40;17.80;;;;;;;;;;6162708;23;20452;-78
2021/12/19 00:13:56;;;;;;;37.05;16.88;;;;;;;;;;6187762;23;20566;-78
2021/12/19 00:16:22;;;;;;;34.47;17.20;;;;;;;;;;6136219;23;20373;-78
2021/12/19 00:18:50;;;;;;;31.27;15.32;;;;;;;;;;6187543;23;20374;-77
2021/12/19 00:21:17;;;;;;;30.85;14.68;;;;;;;;;;6162076;23;20639;-78
2021/12/19 00:23:44;;;;;;;30.02;14.48;;;;;;;;;;6137975;23;20575;-78
2021/12/19 00:26:11;;;;;;;26.73;13.48;;;;;;;;;;6188174;23;20376;-78
2021/12/19 00:28:38;;;;;;;26.70;12.77;;;;;;;;;;6168074;23;20454;-78
2021/12/19 00:31:05;;;;;;;21.63;11.63;;;;;;;;;;6168296;23;20610;-78
2021/12/19 00:33:31;;;;;;;24.63;11.85;;;;;;;;;;6192579;23;20374;-77
2021/12/19 00:35:57;;;;;;;23.63;12.55;;;;;;;;;;6167454;23;20391;-78
2021/12/19 00:38:24;;;;;;;21.58;11.05;;;;;;;;;;6142098;23;20364;-78
2021/12/19 00:40:50;;;;;;;18.98;10.25;;;;;;;;;;6143611;23;20368;-77
2021/12/19 00:43:25;;;;;;;20.40;9.27;;;;;;;;;;6193426;23;20702;-77
2021/12/19 00:45:52;;;;;;;15.35;7.75;;;;;;;;;;6166985;23;20368;-78
2021/12/19 00:48:18;;;;;;;12.73;6.88;;;;;;;;;;6192005;23;20394;-78
2021/12/19 00:50:44;;;;;;;9.25;4.75;;;;;;;;;;6167710;23;20382;-78
2021/12/19 00:53:11;;;;;;;9.73;4.50;;;;;;;;;;6192693;23;20383;-78
2021/12/19 00:55:37;;;;;;;8.23;4.60;;;;;;;;;;6167393;23;20367;-78
2021/12/19 00:58:03;;;;;;;8.55;3.95;;;;;;;;;;6191321;23;20376;-78
2021/12/19 01:00:33;;;;;;;9.90;4.28;;;7.70;99.90;;;;;;6168464;23;20754;-78
2021/12/19 01:02:59;;;;;;;10.47;4.37;;;;;;;;;;6191981;23;20378;-78
2021/12/19 01:05:27;;;;;;;10.95;4.50;;;;;;;;;;6192820;23;20420;-78
2021/12/19 01:07:53;;;;;;;13.93;5.20;;;;;;;;;;6167602;23;20741;-79
2021/12/19 01:10:19;;;;;;;8.60;4.07;;;;;;;;;;6167728;23;20479;-79
2021/12/19 01:12:45;;;;;;;8.32;3.80;;;;;;;;;;6192477;23;20455;-79
2021/12/19 01:15:13;;;;;;;6.97;3.20;;;;;;;;;;6191251;23;20402;-79
2021/12/19 01:17:39;;;;;;;4.85;2.65;;;;;;;;;;6193099;23;20368;-79
2021/12/19 01:20:08;;;;;;;4.93;2.70;;;;;;;;;;6167109;23;20374;-79
2021/12/19 01:22:34;;;;;;;4.57;2.60;;;;;;;;;;6218755;23;20376;-79
2021/12/19 01:25:00;;;;;;;4.88;2.53;;;;;;;;;;6142580;23;20395;-79
2021/12/19 01:27:26;;;;;;;4.68;2.42;;;;;;;;;;6187554;23;20404;-78
2021/12/19 01:29:52;;;;;;;6.72;2.35;;;;;;;;;;6187413;23;20464;-79
2021/12/19 01:32:18;;;;;;;6.35;2.60;;;;;;;;;;6187144;23;20704;-79
2021/12/19 01:34:44;;;;;;;7.40;2.70;;;;;;;;;;6162288;23;20420;-78
2021/12/19 01:37:10;;;;;;;6.00;2.57;;;;;;;;;;6137373;23;20369;-79
2021/12/19 01:39:36;;;;;;;5.95;2.50;;;;;;;;;;6187776;23;20404;-79
2021/12/19 01:42:03;;;;;;;5.75;2.90;;;;;;;;;;6188154;23;20369;-79
2021/12/19 01:44:29;;;;;;;5.60;2.88;;;;;;;;;;6163563;23;20408;-79
2021/12/19 01:46:55;;;;;;;6.97;2.90;;;;;;;;;;6163801;23;20424;-78
2021/12/19 01:49:22;;;;;;;6.40;2.75;;;;;;;;;;6188851;23;20381;-79
2021/12/19 01:51:49;;;;;;;6.97;2.90;;;;;;;;;;6188550;23;20369;-79
2021/12/19 01:54:15;;;;;;;5.85;2.80;;;;;;;;;;6186694;23;20401;-79
2021/12/19 01:56:41;;;;;;;5.40;2.90;;;;;;;;;;6163343;23;20371;-78
2021/12/19 01:59:10;;;;;;;6.40;3.17;;;;;;;;;;6162797;23;20385;-78
2021/12/19 02:01:53;;;;;;;6.60;2.78;;;;;;;;;;6164482;23;20408;-79
2021/12/19 02:04:21;;;;;;;5.38;2.50;;;;;;;;;;6188077;23;20404;-79
2021/12/19 02:06:47;;;;;;;5.20;2.30;;;;;;;;;;6189166;23;20435;-79
2021/12/19 02:09:13;;;;;;;6.05;2.40;;;;;;;;;;6165291;23;20948;-78
2021/12/19 02:11:41;;;;;;;5.07;2.40;;;;;;;;;;6163250;23;20745;-77
2021/12/19 02:14:07;;;;;;;4.45;2.40;;;;;;;;;;6188402;23;20498;-77
2021/12/19 02:16:35;;;;;;;4.57;2.17;;;;;;;;;;6163138;23;20389;-77
2021/12/19 02:19:01;;;;;;;6.60;2.40;;;;;;;;;;6189713;23;20404;-78
2021/12/19 02:21:27;;;;;;;5.07;2.28;;;;;;;;;;6164149;23;20431;-78
2021/12/19 02:23:57;;;;;;;3.58;1.70;;;;;;;;;;6163219;23;20456;-78
2021/12/19 02:26:23;;;;;;;6.10;1.90;;;;;;;;;;6168237;23;20377;-77
2021/12/19 02:28:49;;;;;;;5.75;2.17;;;;;;;;;;6192943;23;20465;-78
2021/12/19 02:31:15;;;;;;;6.18;2.35;;;;;;;;;;6194472;23;20395;-78
2021/12/19 02:33:46;;;;;;;6.25;2.22;;;;;;;;;;6193299;23;20386;-78
2021/12/19 02:49:19;;;;;;;7.63;2.08;;;;;;;;;;6194091;23;20372;-78
2021/12/19 02:51:46;;;;;;;5.37;2.10;;;;;;;;;;6193829;23;20869;-77
2021/12/19 02:54:12;;;;;;;5.07;1.98;;;;;;;;;;6193198;23;20405;-78
2021/12/19 02:56:38;;;;;;;9.00;1.88;;;;;;;;;;6142444;23;20398;-77
2021/12/19 02:59:04;;;;;;;4.70;1.83;;;;;;;;;;6168204;23;20865;-76
2021/12/19 03:01:30;;;;;;;4.93;2.03;;;;;;;;;;6219478;23;20376;-78
2021/12/19 03:03:57;;;;;;;6.45;2.00;;;;;;;;;;6166832;23;21097;-77
2021/12/19 03:06:24;;;;;;;5.78;2.20;;;;;;;;;;6194584;23;20899;-78
2021/12/19 03:08:51;;;;;;;6.20;2.30;;;;;;;;;;6168250;23;20371;-78
2021/12/19 03:19:37;;;;;;;5.55;1.30;;;;;;;;;;6172537;23;20376;-78
2021/12/19 03:22:04;;;;;;;4.18;1.48;;;;;;;;;;6193990;23;20702;-79
2021/12/19 03:24:30;;;;;;;4.25;1.35;;;;;;;;;;6168021;23;20819;-79
2021/12/19 03:26:56;;;;;;;4.47;1.50;;;;;;;;;;6192759;23;20383;-79
2021/12/19 03:29:22;;;;;;;5.05;1.70;;;;;;;;;;6193381;23;20458;-79
2021/12/19 03:31:48;;;;;;;5.18;1.63;;;;;;;;;;6169432;23;20375;-79
2021/12/19 03:34:14;;;;;;;4.78;1.50;;;;;;;;;;6193209;23;20438;-79
2021/12/19 03:36:40;;;;;;;4.20;1.70;;;;;;;;;;6167397;23;20363;-79
2021/12/19 03:39:14;;;;;;;3.03;1.20;;;;;;;;;;6193794;23;20402;-78
2021/12/19 03:41:43;;;;;;;5.13;1.58;;;;;;;;;;6192428;23;20422;-78
2021/12/19 03:44:10;;;;;;;4.72;1.73;;;;;;;;;;6192849;23;20419;-78
2021/12/19 03:46:36;;;;;;;3.43;1.60;;;;;;;;;;6192564;23;20884;-77
2021/12/19 03:49:02;;;;;;;3.80;1.52;;;;;;;;;;6168944;23;20372;-77
2021/12/19 03:51:28;;;;;;;4.80;1.58;;;;;;;;;;6168973;23;20395;-77
2021/12/19 03:53:54;;;;;;;5.57;1.67;;;;;;;;;;6143943;23;20391;-78
2021/12/19 03:56:20;;;;;;;5.43;1.67;;;;;;;;;;6191949;23;20371;-79
2021/12/19 03:58:46;;;;;;;7.45;2.20;;;;;;;;;;6194066;23;20429;-80
2021/12/19 04:01:13;;;;;;;6.40;2.10;;;;;;;;;;6195315;23;20368;-81
2021/12/19 04:03:40;;;;;;;7.22;2.33;;;;;;;;;;6174707;23;20392;-80
2021/12/19 04:06:06;;;;;;;6.45;2.13;;;;;;;;;;6154973;23;20364;-80
2021/12/19 04:08:32;;;;;;;6.53;2.17;;;;;;;;;;6150172;23;20368;-79
2021/12/19 04:10:58;;;;;;;6.70;2.37;;;;;;;;;;6193361;23;20410;-81
2021/12/19 04:13:24;;;;;;;10.02;2.70;;;;;;;;;;6195458;23;20451;-81
2021/12/19 04:15:51;;;;;;;8.43;3.10;;;;;;;;;;6168021;23;20375;-81
2021/12/19 04:18:17;;;;;;;8.65;3.47;;;;;;;;;;6169496;23;20378;-81
2021/12/19 04:20:43;;;;;;;11.43;3.85;;;;;;;;;;6192974;23;20368;-81
2021/12/19 04:23:10;;;;;;;13.25;4.60;;;;;;;;;;6192697;23;20364;-82
2021/12/19 04:25:36;;;;;;;13.98;4.68;;;;;;;;;;6218206;23;20465;-81
2021/12/19 04:28:02;;;;;;;10.38;4.00;;;;;;;;;;6187866;23;20407;-80
2021/12/19 04:30:28;;;;;;;9.88;4.10;;;;;;;;;;6163461;23;20377;-80
2021/12/19 04:33:08;;;;;;;16.45;3.72;;;;;;;;;;6187316;23;20373;-80
2021/12/19 04:35:36;;;;;;;8.63;2.97;;;;;;;;;;6161883;23;20380;-80
2021/12/19 04:40:58;;;;;;;7.32;3.05;;;;;;;;;;6188316;23;20374;-79
2021/12/19 04:54:52;;;;;;;15.52;5.20;;;;;;;;;;6162919;23;20443;-80
2021/12/19 04:59:37;;;;;;;13.63;5.00;;;;;;;;;;6186676;23;20389;-79
2021/12/19 05:02:31;;;;;;;15.10;5.40;;;;;;;;;;6187955;23;20396;-79
2021/12/19 05:15:47;;;;;;;15.82;6.07;;;;;;;;;;6185860;23;20373;-80
2021/12/19 05:18:13;;;;;;;18.65;6.80;;;;;;;;;;6139814;23;20377;-79
2021/12/19 05:20:50;;;;;;;19.55;6.97;;;;;;;;;;6137298;23;20366;-79
2021/12/19 05:23:51;;;;;;;22.23;7.15;;;;;;;;;;6187750;23;20365;-78
2021/12/19 05:26:06;;;;;;;22.77;7.63;;;;;;;;;;6183947;23;20747;-78
2021/12/19 05:28:33;;;;;;;18.58;6.85;;;;;;;;;;6166794;23;20406;-79
2021/12/19 05:30:59;;;;;;;20.95;7.88;;;;;;;;;;6192406;23;20368;-78
2021/12/19 05:33:25;;;;;;;18.88;7.32;;;;;;;;;;6167306;23;20386;-79
2021/12/19 05:44:14;;;;;;;21.92;8.85;;;;;;;;;;6171787;23;20400;-79
2021/12/19 05:46:40;;;;;;;22.23;9.65;;;;;;;;;;6171795;23;20372;-79
2021/12/19 05:49:07;;;;;;;24.33;9.27;;;;;;;;;;6143688;23;20372;-79
2021/12/19 05:51:34;;;;;;;26.05;10.38;;;;;;;;;;6192950;23;20403;-79
2021/12/19 05:54:00;;;;;;;25.80;11.15;;;;;;;;;;6190775;23;20403;-79
2021/12/19 05:56:26;;;;;;;25.02;11.25;;;;;;;;;;6168200;23;20364;-79
2021/12/19 05:58:52;;;;;;;28.65;12.60;;;;;;;;;;6191583;23;20843;-79
2021/12/19 06:01:19;;;;;;;25.90;12.32;;;;;;;;;;6142478;23;20414;-78
2021/12/19 06:03:45;;;;;;;28.35;12.77;;;;;;;;;;6191879;23;20395;-79
2021/12/19 06:06:11;;;;;;;32.25;13.15;;;;;;;;;;6167919;23;20402;-79
2021/12/19 06:08:37;;;;;;;33.05;13.30;;;;;;;;;;6192297;23;20368;-79
2021/12/19 06:11:03;;;;;;;28.92;12.50;;;;;;;;;;6166349;23;20364;-79
2021/12/19 06:13:29;;;;;;;27.38;13.45;;;;;;;;;;6167567;23;20418;-79
2021/12/19 06:15:57;;;;;;;31.98;13.15;;;;;;;;;;6166847;23;20367;-79
2021/12/19 06:18:23;;;;;;;32.40;13.23;;;;;;;;;;6168004;23;20364;-79
2021/12/19 06:20:49;;;;;;;31.48;12.73;;;;;;;;;;6192063;23;20364;-79
2021/12/19 06:23:15;;;;;;;34.47;12.90;;;;;;;;;;6191725;23;20368;-79
2021/12/19 06:25:45;;;;;;;31.17;12.82;;;7.40;99.90;;;;;;6195053;23;20439;-78
2021/12/19 06:28:15;;;;;;;34.17;11.60;;;;;;;;;;6169694;23;20379;-78
2021/12/19 06:30:41;;;;;;;26.10;10.23;;;;;;;;;;6195359;23;20376;-78
2021/12/19 06:33:07;;;;;;;28.33;10.90;;;;;;;;;;6144478;23;20368;-79
2021/12/19 06:35:34;;;;;;;32.45;10.73;;;;;;;;;;6194002;23;20418;-79
2021/12/19 06:38:00;;;;;;;32.42;11.02;;;;;;;;;;6169023;23;20370;-79
2021/12/19 06:40:26;;;;;;;26.83;11.23;;;;;;;;;;6191546;23;20367;-79
2021/12/19 06:42:52;;;;;;;31.42;11.73;;;;;;;;;;6144145;23;20391;-78
2021/12/19 06:45:19;;;;;;;34.70;10.80;;;;;;;;;;6144348;23;20395;-78
2021/12/19 06:47:45;;;;;;;29.35;10.30;;;;;;;;;;6145590;23;20392;-79
2021/12/19 06:50:12;;;;;;;24.90;8.53;;;;;;;;;;6195544;23;20370;-79
2021/12/19 06:52:39;;;;;;;25.83;8.68;;;;;;;;;;6195874;23;20387;-79
2021/12/19 06:55:06;;;;;;;23.67;7.80;;;;;;;;;;6193655;23;20398;-78
2021/12/19 06:57:32;;;;;;;18.17;7.45;;;;;;;;;;6171963;23;20372;-79
2021/12/19 06:59:58;;;;;;;21.90;7.47;;;;;;;;;;6147231;23;20407;-79
2021/12/19 07:02:24;;;;;;;18.77;7.00;;;;;;;;;;6171707;23;20367;-79
2021/12/19 07:04:51;;;;;;;17.58;5.80;;;;;;;;;;6171171;23;20402;-79
2021/12/19 07:07:19;;;;;;;22.05;6.82;;;;;;;;;;6196094;23;20391;-78
2021/12/19 07:09:45;;;;;;;21.90;6.68;;;;;;;;;;6171800;23;20363;-78
2021/12/19 07:12:11;;;;;;;21.65;6.88;;;;;;;;;;6197646;23;20868;-79
2021/12/19 07:14:37;;;;;;;24.13;7.20;;;;;;;;;;6201262;23;20686;-79
2021/12/19 07:17:03;;;;;;;23.23;7.03;;;;;;;;;;6199402;23;20415;-79
2021/12/19 07:19:29;;;;;;;19.83;6.90;;;;;;;;;;6149820;23;20367;-79
2021/12/19 07:21:56;;;;;;;18.63;6.50;;;;;;;;;;6173700;23;20893;-79
2021/12/19 07:24:22;;;;;;;22.52;7.05;;;;;;;;;;6169695;23;20439;-79
2021/12/19 07:26:48;;;;;;;20.23;6.70;;;;;;;;;;6170100;23;20644;-79
2021/12/19 07:29:14;;;;;;;22.58;7.05;;;;;;;;;;6192363;23;20482;-79
2021/12/19 07:31:40;;;;;;;17.88;6.35;;;;;;;;;;6169115;23;20372;-79
2021/12/19 07:34:07;;;;;;;20.77;6.53;;;;;;;;;;6168746;23;20395;-78
2021/12/19 07:36:41;;;;;;;17.25;5.53;;;;;;;;;;6167910;23;20391;-78
2021/12/19 07:39:12;;;;;;;17.88;6.00;;;;;;;;;;6167410;23;20430;-79
2021/12/19 07:41:39;;;;;;;16.63;5.65;;;;;;;;;;6192393;23;20363;-79
2021/12/19 07:44:07;;;;;;;15.80;5.75;;;;;;;;;;6193664;23;20399;-79
2021/12/19 07:46:33;;;;;;;19.52;5.80;;;;;;;;;;6167617;23;20368;-79
2021/12/19 07:48:59;;;;;;;15.02;5.57;;;;;;;;;;6142748;23;20372;-79
2021/12/19 07:51:25;;;;;;;20.20;5.82;;;;;;;;;;6143931;23;20364;-79
2021/12/19 07:53:51;;;;;;;16.58;5.43;;;;;;;;;;6165937;23;20886;-79
2021/12/19 07:56:17;;;;;;;18.40;5.83;;;;;;;;;;6169296;23;20368;-79
2021/12/19 07:58:43;;;;;;;20.58;6.25;;;;;;;;;;6167228;23;20463;-80
2021/12/19 08:01:09;;;;;;;18.17;6.10;;;;;;;;;;6168903;23;20406;-79
2021/12/19 08:03:35;;;;;;;18.40;5.82;;;;;;;;;;6190119;23;20435;-79
2021/12/19 08:06:02;;;;;;;19.60;5.50;;;;;;;;;;6190815;23;20395;-79
2021/12/19 08:08:32;;;;;;;17.15;5.70;;;;;;;;;;6190008;23;20368;-79
2021/12/19 08:13:42;;;;;;;18.90;5.57;;;;;;;;;;6171958;23;20392;-80
2021/12/19 08:16:08;;;;;;;17.45;5.68;;;;;;;;;;6190996;23;20371;-79
2021/12/19 08:18:35;;;;;;;22.77;5.88;;;;;;;;;;6167460;23;20439;-80
2021/12/19 08:21:01;;;;;;;14.52;5.07;;;;;;;;;;6191449;23;20367;-79
2021/12/19 08:23:27;;;;;;;18.48;5.78;;;;;;;;;;6167418;23;20690;-80
2021/12/19 08:25:53;;;;;;;22.50;5.35;;;;;;;;;;6167983;23;20372;-79
2021/12/19 08:28:20;;;;;;;18.53;5.30;;;;;;;;;;6161326;23;20381;-79
2021/12/19 08:30:46;;;;;;;24.08;6.20;;;;;;;;;;6188117;23;20377;-80
2021/12/19 08:33:12;;;;;;;18.95;5.60;;;;;;;;;;6136044;23;20897;-80
2021/12/19 08:35:38;;;;;;;19.25;6.43;;;;;;;;;;6163543;23;20409;-79
2021/12/19 08:38:04;;;;;;;24.70;6.18;;;;;;;;;;6137044;23;20370;-79
2021/12/19 08:40:32;;;;;;;19.33;5.47;;;;;;;;;;6162918;23;20400;-80
2021/12/19 08:43:01;;;;;;;17.60;5.38;;;;;;;;;;6185721;23;20377;-80
2021/12/19 08:45:28;;;;;;;19.52;5.57;;;;;;;;;;6159305;23;20432;-80
2021/12/19 08:47:54;;;;;;;21.80;5.40;;;;;;;;;;6138111;23;20366;-80
2021/12/19 08:50:21;;;;;;;22.17;5.77;;;;;;;;;;6161238;23;20384;-82
2021/12/19 08:52:47;;;;;;;20.57;5.63;;;;;;;;;;6137752;23;20409;-83
2021/12/19 08:55:14;;;;;;;21.20;5.70;;;;;;;;;;6187813;23;20960;-82
2021/12/19 08:57:40;;;;;;;22.88;5.65;;;;;;;;;;6165250;23;20439;-83
2021/12/19 09:00:10;;;;;;;25.23;5.97;;;;;;;;;;6167463;23;20413;-83
2021/12/19 09:02:36;;;;;;;22.90;6.50;;;;;;;;;;6171136;23;20377;-83
2021/12/19 09:05:03;;;;;;;26.13;6.28;;;;;;;;;;6196628;23;20401;-83
2021/12/19 09:07:29;;;;;;;19.27;6.18;;;;;;;;;;6190761;23;20369;-83
2021/12/19 09:09:55;;;;;;;19.40;5.53;;;;;;;;;;6163719;23;20389;-82
2021/12/19 09:12:21;;;;;;;18.08;5.30;;;;;;;;;;6161000;23;20554;-82
2021/12/19 09:14:47;;;;;;;18.38;5.25;;;;;;;;;;6137343;23;20381;-81
2021/12/19 09:17:14;;;;;;;18.75;5.47;;;;;;;;;;6137129;23;20370;-81
2021/12/19 09:19:41;;;;;;;16.48;5.38;;;;;;;;;;6160453;23;20376;-82
2021/12/19 09:22:07;;;;;;;16.35;4.85;;;;;;;;;;6137363;23;20428;-82
2021/12/19 09:24:34;;;;;;;14.98;5.50;;;;;;;;;;6160741;23;20397;-82
2021/12/19 09:27:01;;;;;;;18.60;5.82;;;;;;;;;;6162254;23;20496;-82
2021/12/19 09:29:28;;;;;;;19.73;5.72;;;;;;;;;;6160762;23;20385;-80
2021/12/19 09:31:55;;;;;;;22.77;5.53;;;;;;;;;;6137408;23;20377;-82
2021/12/19 09:34:21;;;;;;;20.98;5.80;;;;;;;;;;6162660;23;20376;-81
2021/12/19 09:36:48;;;;;;;20.37;6.63;;;;;;;;;;6161215;23;20377;-82
2021/12/19 09:39:14;;;;;;;17.02;6.03;;;;;;;;;;6139013;23;20393;-82
2021/12/19 09:41:44;;;;;;;20.40;5.63;;;;;;;;;;6136917;23;20369;-82
2021/12/19 09:44:11;;;;;;;18.33;5.68;;;;;;;;;;6185953;23;20398;-82
2021/12/19 09:46:40;;;;;;;21.33;5.43;;;;;;;;;;6186035;23;20381;-83
2021/12/19 09:49:07;;;;;;;21.70;5.38;;;;;;;;;;6186619;23;20390;-83
2021/12/19 09:51:34;;;;;;;19.20;5.80;;;;;;;;;;6163027;23;20505;-82
2021/12/19 09:54:00;;;;;;;19.00;5.03;;;;;;;;;;6161284;23;20905;-81
2021/12/19 09:56:27;;;;;;;24.73;5.95;;;;;;;;;;6162369;23;20405;-84
2021/12/19 09:58:53;;;;;;;16.70;5.17;;;;;;;;;;6160442;23;20461;-82
2021/12/19 10:01:19;;;;;;;18.63;5.33;;;;;;;;;;6137867;23;20370;-81
2021/12/19 10:03:46;;;;;;;19.92;5.97;;;;;;;;;;6161508;23;20484;-82
2021/12/19 10:06:16;;;;;;;17.27;5.40;;;;;;;;;;6163271;23;20798;-82
2021/12/19 10:08:43;;;;;;;18.67;5.13;;;;;;;;;;6187611;23;20373;-82
2021/12/19 10:11:32;;;;;;;19.20;4.88;;;;;;;;;;6161894;23;20389;-82
2021/12/19 10:13:58;;;;;;;13.73;4.38;;;;;;;;;;6163078;23;20464;-82
2021/12/19 10:16:26;;;;;;;18.77;4.90;;;;;;;;;;6163038;23;20464;-81
2021/12/19 10:18:53;;;;;;;16.90;4.97;;;;;;;;;;6189568;23;20392;-81
2021/12/19 10:21:20;;;;;;;19.88;5.22;;;;;;;;;;6187556;23;20436;-81
2021/12/19 10:23:46;;;;;;;15.80;4.72;;;;;;;;;;6164348;23;20393;-81
2021/12/19 10:26:13;;;;;;;16.57;5.00;;;;;;;;;;6189784;23;20430;-81
2021/12/19 10:28:50;;;;;;;17.90;4.45;;;;;;;;;;6192569;23;20405;-81
2021/12/19 10:31:17;;;;;;;16.35;4.60;;;;;;;;;;6167115;23;20391;-81
2021/12/19 10:33:43;;;;;;;18.23;4.50;;;;;;;;;;6167563;23;20371;-79
2021/12/19 10:36:10;;;;;;;15.60;4.70;;;;;;;;;;6167832;23;20391;-79
2021/12/19 10:38:41;;;;;;;18.98;4.78;;;;;;;;;;6168156;23;20404;-79
2021/12/19 10:41:13;;;;;;;16.73;4.70;;;;;;;;;;6165685;23;20375;-80
2021/12/19 10:43:45;;;;;;;16.08;4.65;;;;;;;;;;6168292;23;20467;-79
2021/12/19 10:46:11;;;;;;;16.85;4.70;;;;;;;;;;6166119;23;20400;-81
2021/12/19 10:48:41;;;;;;;18.50;4.40;;;;;;;;;;6192323;23;20375;-78
2021/12/19 10:51:09;;;;;;;18.85;4.47;;;;;;;;;;6191877;23;20391;-80
2021/12/19 10:53:36;;;;;;;17.05;4.43;;;;;;;;;;6191448;23;20380;-79
2021/12/19 10:56:04;;;;;;;13.57;4.18;;;;;;;;;;6192963;23;20394;-80
2021/12/19 10:58:55;;;;;;;14.70;4.57;;;;;;;;;;6166350;23;20403;-81
2021/12/19 11:01:29;;;;;;;16.10;4.53;;;;;;;;;;6191888;23;20376;-80
2021/12/19 11:04:01;;;;;;;15.93;4.30;;;;;;;;;;6167593;23;20482;-80
2021/12/19 11:06:33;;;;;;;15.23;4.30;;;;;;;;;;6165617;23;20380;-81
2021/12/19 11:09:00;;;;;;;16.90;4.70;;;;;;;;;;6192794;23;20726;-82
2021/12/19 11:11:41;;;;;;;16.30;4.13;;;;;;;;;;6166656;23;20607;-80
2021/12/19 11:14:09;;;;;;;15.93;4.10;;;;;;;;;;6192894;23;20999;-80
2021/12/19 11:16:35;;;;;;;15.57;4.15;;;;;;;;;;6166029;23;20368;-81
2021/12/19 11:19:01;;;;;;;17.27;4.50;;;;;;;;;;6195472;23;20699;-80
2021/12/19 11:21:33;;;;;;;17.60;3.83;;;;;;;;;;6147813;23;20531;-79
2021/12/19 11:23:59;;;;;;;16.52;3.85;;;;;;;;;;6171312;23;20402;-80
2021/12/19 11:26:25;;;;;;;16.17;3.90;;;;;;;;;;6143641;23;20464;-79
2021/12/19 11:28:54;;;;;;;15.93;3.72;;;;;;;;;;6139973;23;20380;-78
2021/12/19 11:31:20;;;;;;;14.20;3.40;;;;;;;;;;6192695;23;20883;-79
2021/12/19 11:33:53;;;;;;;21.42;4.50;;;;;;;;;;6166059;23;20451;-78
2021/12/19 11:36:19;;;;;;;21.75;6.43;;;;;;;;;;6167911;23;20397;-78
2021/12/19 11:38:46;;;;;;;16.85;4.90;;;;;;;;;;6166690;23;20376;-78
2021/12/19 11:41:12;;;;;;;16.00;4.00;;;;;;;;;;6161797;23;21003;-79
2021/12/19 11:43:39;;;;;;;18.90;4.60;;;;;;;;;;6186921;23;20375;-78
2021/12/19 11:46:14;;;;;;;18.33;4.57;;;;;;;;;;6162067;23;20380;-79
2021/12/19 11:48:41;;;;;;;19.05;4.35;;;;;;;;;;6140197;23;20399;-79
2021/12/19 11:51:08;;;;;;;23.08;5.03;;;;;;;;;;6185696;23;20395;-78
2021/12/19 11:53:39;;;;;;;28.17;10.48;;;;;;;;;;6163178;23;20376;-79
2021/12/19 11:56:11;;;;;;;23.23;7.22;;;;;;;;;;6161644;23;20383;-78
2021/12/19 11:58:46;;;;;;;20.25;5.25;;;;;;;;;;6186167;23;20454;-78
2021/12/19 12:01:13;;;;;;;16.80;4.53;;;;;;;;;;6213445;23;20455;-78
2021/12/19 12:03:42;;;;;;;22.42;7.28;;;;;;;;;;6186507;23;20367;-78
2021/12/19 12:06:15;;;;;;;18.73;4.50;;;;;;;;;;6162546;23;20429;-77
2021/12/19 12:09:04;;;;;;;21.13;5.03;;;;;;;;;;6185760;23;22496;-76
2021/12/19 12:11:30;;;;;;;17.08;3.72;;;;;;;;;;6186153;23;20372;-78
2021/12/19 12:14:16;;;;;;;16.08;4.43;;;;;;;;;;6162008;23;20411;-78
2021/12/19 12:16:51;;;;;;;17.35;4.50;;;;;;;;;;6160551;23;20372;-78
2021/12/19 12:19:17;;;;;;;21.02;3.88;;;;;;;;;;6159887;23;20446;-78
2021/12/19 12:21:48;;;;;;;18.77;4.60;;;;;;;;;;6137193;23;20368;-78
2021/12/19 12:24:16;;;;;;;17.52;4.80;;;;;;;;;;6137474;23;20457;-78
2021/12/19 12:26:53;;;;;;;24.80;5.22;;;;;;;;;;6162235;23;20455;-77
2021/12/19 12:29:22;;;;;;;16.33;3.55;;;;;;;;;;6165314;23;20384;-77
2021/12/19 12:31:48;;;;;;;16.70;4.17;;;;;;;;;;6166623;23;20451;-78
2021/12/19 12:34:16;;;;;;;17.17;4.20;;;;;;;;;;6188139;23;20410;-77
2021/12/19 12:36:42;;;;;;;19.92;5.18;;;;;;;;;;6165423;23;20375;-77
2021/12/19 12:39:15;;;;;;;17.75;3.80;;;;;;;;;;6164952;23;20375;-77
2021/12/19 12:44:17;;;;;;;18.15;4.43;;;;;;;;;;6186569;23;20399;-76
2021/12/19 12:46:44;;;;;;;16.10;4.43;;;;;;;;;;6160723;23;20384;-76
2021/12/19 12:49:14;;;;;;;20.48;4.38;;;;;;;;;;6186724;23;20383;-77
2021/12/19 12:51:43;;;;;;;19.42;4.75;;;;;;;;;;6185713;23;20403;-76
2021/12/19 12:54:21;;;;;;;17.30;4.25;;;;;;;;;;6185794;23;20451;-77
2021/12/19 12:56:50;;;;;;;23.38;4.75;;;;;;;;;;6187147;23;20702;-77
2021/12/19 12:59:18;;;;;;;17.98;4.13;;;;;;;;;;6185917;23;20764;-76
2021/12/19 13:01:47;;;;;;;18.83;4.15;;;;;;;;;;6161549;23;20704;-76
2021/12/19 13:04:22;;;;;;;18.77;5.45;;;;;;;;;;6186648;23;20403;-77
2021/12/19 13:06:56;;;;;;;20.17;4.50;;;;;;;;;;6186315;23;20383;-76
2021/12/19 13:09:28;;;;;;;17.10;4.18;;;;;;;;;;6185642;23;20380;-76
2021/12/19 13:12:04;;;;;;;19.48;4.32;;;;;;;;;;6212196;23;20920;-76
2021/12/19 13:14:31;;;;;;;16.15;4.22;;;;;;;;;;6161520;23;20376;-74
2021/12/19 13:17:17;;;;;;;16.08;4.20;;;;;;;;;;6162494;23;20380;-76
2021/12/19 13:19:43;;;;;;;17.65;3.58;;;;;;;;;;6184271;23;20510;-75
2021/12/19 13:22:10;;;;;;;22.55;4.57;;;;;;;;;;6190577;23;20376;-76
2021/12/19 13:24:36;;;;;;;20.45;4.57;;;;;;;;;;6191156;23;20421;-76
2021/12/19 13:27:03;;;;;;;16.70;4.17;;;;;;;;;;6218957;23;20380;-76
2021/12/19 13:29:30;;;;;;;15.60;4.13;;;;;;;;;;6166693;23;20727;-76
2021/12/19 13:32:15;;;;;;;18.35;4.35;;;;;;;;;;6164506;23;20376;-77
2021/12/19 13:34:41;;;;;;;18.98;4.30;;;;;;;;;;6192890;23;20394;-75
2021/12/19 13:37:07;;;;;;;22.83;5.07;;;;;;;;;;6166446;23;20462;-76
2021/12/19 13:39:34;;;;;;;21.85;4.50;;;;;;;;;;6170083;23;21396;-75
2021/12/19 13:42:08;;;;;;;24.42;5.32;;;;;;;;;;6143993;23;20378;-76
2021/12/19 13:44:34;;;;;;;22.83;5.95;;;;;;;;;;6170122;23;20426;-76
2021/12/19 13:47:09;;;;;;;17.83;4.10;;;;;;;;;;6143552;23;20375;-76
2021/12/19 13:49:36;;;;;;;18.30;4.15;;;;;;;;;;6166258;23;20371;-76
2021/12/19 13:52:03;;;;;;;14.65;4.20;;;;;;;;;;6192851;23;20372;-76
2021/12/19 13:54:31;;;;;;;19.75;4.22;;;;;;;;;;6144839;23;20367;-76
2021/12/19 13:56:58;;;;;;;18.45;3.92;;;;;;;;;;6194276;23;20395;-76
2021/12/19 13:59:24;;;;;;;17.60;4.40;;;;;;;;;;6192378;23;20841;-76
2021/12/19 14:01:51;;;;;;;16.73;3.65;;;;;;;;;;6144776;23;20371;-76
2021/12/19 14:04:19;;;;;;;20.35;4.00;;;;;;;;;;6145020;23;20402;-76
2021/12/19 14:06:46;;;;;;;20.25;4.50;;;;;;;;;;6167019;23;20371;-76
2021/12/19 14:09:14;;;;;;;21.03;4.53;;;;;;;;;;6194756;23;20395;-76
2021/12/19 14:11:43;;;;;;;20.13;4.40;;;;;;;;;;6168990;23;20367;-76
2021/12/19 14:14:24;;;;;;;15.87;4.07;;;;;;;;;;6169350;23;20372;-76
2021/12/19 14:16:56;;;;;;;17.30;4.43;;;;;;;;;;6166882;23;20411;-76
2021/12/19 14:19:22;;;;;;;19.13;4.13;;;;;;;;;;6167657;23;20372;-77
2021/12/19 14:21:49;;;;;;;14.75;3.85;;;;;;;;;;6169862;23;20402;-75
2021/12/19 14:24:24;;;;;;;16.63;3.88;;;;;;;;;;6167500;23;20398;-76
2021/12/19 14:26:52;;;;;;;11.48;2.83;;;;;;;;;;6169624;23;20375;-76
2021/12/19 14:29:25;;;;;;;10.93;2.40;;;8.70;99.90;;;;;;6167334;23;20471;-76
2021/12/19 14:32:01;;;;;;;14.90;2.63;;;;;;;;;;6168965;23;20403;-75
2021/12/19 14:34:32;;;;;;;10.93;2.33;;;;;;;;;;6169341;23;20431;-74
2021/12/19 14:37:11;;;;;;;8.50;1.90;;;;;;;;;;6166049;23;20375;-75
2021/12/19 14:39:38;;;;;;;7.07;1.93;;;;;;;;;;6165538;23;20550;-75
2021/12/19 14:42:11;;;;;;;6.00;1.90;;;;;;;;;;6191618;23;20441;-76
2021/12/19 14:44:38;;;;;;;7.28;1.67;;;;;;;;;;6193058;23;20490;-76
2021/12/19 14:47:05;;;;;;;7.32;1.90;;;;;;;;;;6167003;23;20375;-75
2021/12/19 14:49:44;;;;;;;7.75;2.00;;;;;;;;;;6167641;23;20363;-75
2021/12/19 14:52:10;;;;;;;6.43;1.55;;;;;;;;;;6168184;23;20461;-75
2021/12/19 14:54:37;;;;;;;10.57;2.30;;;;;;;;;;6165658;23;20443;-75
2021/12/19 14:57:04;;;;;;;9.80;1.70;;;;;;;;;;6168161;23;20364;-75
2021/12/19 14:59:30;;;;;;;9.55;2.20;;;;;;;;;;6140206;23;20371;-75
2021/12/19 15:01:56;;;;;;;9.67;1.83;;;;;;;;;;6168252;23;20372;-75
2021/12/19 15:04:23;;;;;;;10.30;2.88;;;;;;;;;;6141297;23;20396;-75
2021/12/19 15:06:58;;;;;;;12.32;2.00;;;;;;;;;;6166568;23;20731;-75
2021/12/19 15:09:27;;;;;;;10.50;2.08;;;;;;;;;;6143242;23;20371;-75
2021/12/19 15:11:53;;;;;;;9.32;2.35;;;;;;;;;;6190091;23;20445;-75
2021/12/19 15:14:19;;;;;;;13.10;2.33;;;;;;;;;;6142324;23;20364;-75
2021/12/19 15:16:45;;;;;;;10.27;2.40;;;;;;;;;;6166257;23;20375;-75
2021/12/19 15:19:11;;;;;;;11.18;2.22;;;;;;;;;;6167897;23;20600;-75
2021/12/19 15:21:38;;;;;;;10.73;2.33;;;;;;;;;;6218025;23;20747;-75
2021/12/19 15:24:05;;;;;;;13.48;2.42;;;;;;;;;;6191915;23;20805;-76
2021/12/19 15:26:31;;;;;;;16.42;2.70;;;;;;;;;;6167989;23;20383;-75
2021/12/19 15:28:58;;;;;;;11.50;2.50;;;;;;;;;;6160867;23;20377;-75
2021/12/19 15:31:25;;;;;;;14.63;2.50;;;8.00;99.90;;;;;;6161383;23;20465;-75
2021/12/19 15:33:52;;;;;;;11.43;2.67;;;;;;;;;;6161073;23;20834;-75
2021/12/19 15:36:19;;;;;;;12.40;2.73;;;;;;;;;;6162492;23;20380;-75
2021/12/19 15:38:46;;;;;;;14.57;2.70;;;;;;;;;;6138078;23;20374;-76
2021/12/19 15:41:12;;;;;;;11.93;2.23;;;;;;;;;;6161443;23;20373;-75
2021/12/19 15:43:39;;;;;;;14.68;2.20;;;;;;;;;;6162636;23;20374;-76